createdAt,value
2018-12-06T00:02:20.148Z,92.79
2018-12-06T00:04:48.405Z,92.47
2018-12-06T00:07:18.547Z,92.84
2018-12-06T00:09:46.977Z,92.50
2018-12-06T00:12:15.277Z,92.57
2018-12-06T00:14:43.665Z,92.63
2018-12-06T00:17:15.984Z,92.96
2018-12-06T00:19:44.676Z,92.76
2018-12-06T00:23:15.750Z,92.30
2018-12-06T00:25:44.061Z,92.34
2018-12-06T00:28:12.772Z,92.18
2018-12-06T00:30:42.132Z,93.03
2018-12-06T00:33:10.621Z,92.85
2018-12-06T00:35:39.004Z,91.81
2018-12-06T00:38:07.257Z,91.60
2018-12-06T00:40:35.630Z,92.06
2018-12-06T00:43:04.584Z,92.59
2018-12-06T00:45:32.800Z,92.58
2018-12-06T00:48:00.981Z,92.86
2018-12-06T00:50:30.096Z,92.89
2018-12-06T00:52:58.353Z,93.10
2018-12-06T00:55:26.611Z,93.61
2018-12-06T00:57:54.786Z,94.23
2018-12-06T01:00:23.051Z,93.76
2018-12-06T01:02:51.380Z,93.68
2018-12-06T01:05:19.550Z,93.35
2018-12-06T01:07:47.781Z,93.06
2018-12-06T01:10:16.328Z,93.40
2018-12-06T01:12:44.583Z,91.60
2018-12-06T01:15:12.761Z,92.99
2018-12-06T01:17:40.940Z,93.58
2018-12-06T01:20:09.298Z,94.26
2018-12-06T01:22:38.322Z,94.61
2018-12-06T01:25:07.079Z,93.30
2018-12-06T01:27:35.330Z,94.22
2018-12-06T01:30:03.602Z,94.21
2018-12-06T01:32:31.776Z,94.23
2018-12-06T01:34:59.977Z,93.82
2018-12-06T01:37:28.396Z,94.29
2018-12-06T01:39:56.595Z,94.66
2018-12-06T01:42:24.896Z,93.98
2018-12-06T01:44:53.071Z,93.98
2018-12-06T01:47:21.238Z,93.81
2018-12-06T01:49:49.431Z,94.48
2018-12-06T01:52:17.664Z,93.17
2018-12-06T01:54:45.847Z,94.00
2018-12-06T01:57:14.637Z,94.18
2018-12-06T01:59:42.961Z,94.60
2018-12-06T02:02:11.181Z,94.85
2018-12-06T02:04:39.376Z,94.73
2018-12-06T02:07:07.629Z,94.22
2018-12-06T02:09:35.807Z,94.05
2018-12-06T02:12:04.308Z,93.95
2018-12-06T02:14:32.721Z,93.83
2018-12-06T02:17:00.978Z,93.78
2018-12-06T02:19:29.542Z,94.13
2018-12-06T02:21:57.761Z,93.94
2018-12-06T02:24:25.938Z,93.78
2018-12-06T02:26:54.124Z,93.48
2018-12-06T02:29:22.381Z,93.76
2018-12-06T02:31:50.561Z,93.72
2018-12-06T02:34:20.226Z,93.84
2018-12-06T02:36:48.533Z,93.47
2018-12-06T02:39:17.936Z,92.99
2018-12-06T02:41:46.134Z,93.64
2018-12-06T02:44:14.355Z,93.35
2018-12-06T02:46:42.670Z,93.36
2018-12-06T02:49:10.941Z,93.13
2018-12-06T02:51:39.309Z,92.86
2018-12-06T02:54:07.526Z,93.16
2018-12-06T02:56:35.769Z,93.06
2018-12-06T02:59:03.952Z,93.40
2018-12-06T03:01:32.225Z,93.62
2018-12-06T03:04:00.401Z,93.19
2018-12-06T03:06:28.644Z,92.90
2018-12-06T03:08:56.844Z,93.50
2018-12-06T03:11:25.010Z,93.51
2018-12-06T03:13:53.243Z,93.44
2018-12-06T03:16:21.547Z,93.50
2018-12-06T03:18:49.849Z,93.50
2018-12-06T03:21:19.203Z,94.37
2018-12-06T03:23:47.415Z,94.95
2018-12-06T03:26:15.583Z,95.49
2018-12-06T03:28:43.769Z,96.23
2018-12-06T03:31:11.941Z,95.99
2018-12-06T03:33:40.599Z,96.31
2018-12-06T03:36:08.906Z,96.94
2018-12-06T03:38:37.088Z,96.39
2018-12-06T03:41:05.272Z,96.48
2018-12-06T03:43:33.517Z,96.30
2018-12-06T03:46:01.821Z,96.56
2018-12-06T03:48:30.033Z,96.19
2018-12-06T03:50:58.362Z,95.74
2018-12-06T03:53:26.552Z,95.93
2018-12-06T03:55:54.722Z,95.65
2018-12-06T03:58:22.983Z,95.29
2018-12-06T04:00:51.272Z,95.16
2018-12-06T04:03:19.521Z,95.24
2018-12-06T04:05:47.801Z,95.00
2018-12-06T04:08:15.982Z,95.04
2018-12-06T04:10:44.163Z,95.16
2018-12-06T04:13:12.362Z,94.92
2018-12-06T04:15:40.594Z,94.94
2018-12-06T04:18:08.762Z,95.05
2018-12-06T04:20:36.952Z,95.92
2018-12-06T04:23:05.134Z,96.43
2018-12-06T04:25:33.460Z,96.22
2018-12-06T04:28:01.672Z,96.02
2018-12-06T04:30:29.844Z,96.14
2018-12-06T04:32:58.584Z,96.14
2018-12-06T04:35:26.798Z,96.04
2018-12-06T04:37:55.176Z,96.30
2018-12-06T04:40:23.369Z,96.27
2018-12-06T04:42:51.621Z,95.94
2018-12-06T04:45:20.574Z,95.59
2018-12-06T04:47:48.793Z,96.12
2018-12-06T04:50:16.965Z,95.59
2018-12-06T04:52:45.298Z,96.17
2018-12-06T04:55:13.518Z,96.11
2018-12-06T04:57:41.692Z,96.09
2018-12-06T05:00:10.024Z,96.19
2018-12-06T05:02:38.245Z,96.20
2018-12-06T05:05:06.732Z,96.07
2018-12-06T05:07:34.908Z,96.36
2018-12-06T05:10:03.288Z,95.94
2018-12-06T05:12:32.232Z,96.08
2018-12-06T05:15:00.546Z,95.66
2018-12-06T05:17:28.826Z,95.77
2018-12-06T05:19:57.508Z,95.52
2018-12-06T05:22:25.672Z,95.55
2018-12-06T05:24:53.898Z,95.07
2018-12-06T05:27:22.133Z,94.97
2018-12-06T05:29:50.295Z,94.63
2018-12-06T05:32:18.524Z,94.64
2018-12-06T05:34:46.752Z,94.82
2018-12-06T05:37:15.150Z,94.73
2018-12-06T05:39:43.353Z,95.15
2018-12-06T05:42:11.573Z,95.07
2018-12-06T05:44:39.744Z,94.68
2018-12-06T05:47:07.979Z,94.97
2018-12-06T05:49:36.199Z,94.93
2018-12-06T05:52:04.476Z,94.88
2018-12-06T05:54:32.657Z,94.69
2018-12-06T05:57:00.833Z,94.78
2018-12-06T05:59:30.387Z,94.66
2018-12-06T06:01:58.597Z,94.67
2018-12-06T06:04:26.772Z,94.34
2018-12-06T06:06:56.954Z,94.18
2018-12-06T06:09:25.680Z,94.44
2018-12-06T06:11:54.061Z,94.18
2018-12-06T06:14:22.699Z,94.68
2018-12-06T06:16:50.873Z,94.23
2018-12-06T06:19:19.037Z,94.18
2018-12-06T06:21:48.030Z,94.43
2018-12-06T06:24:16.250Z,94.24
2018-12-06T06:26:44.573Z,94.32
2018-12-06T06:29:12.812Z,93.73
2018-12-06T06:31:40.976Z,93.84
2018-12-06T06:34:09.191Z,94.10
2018-12-06T06:36:37.437Z,94.50
2018-12-06T06:39:07.449Z,94.89
2018-12-06T06:41:37.524Z,94.79
2018-12-06T06:44:05.745Z,95.79
2018-12-06T06:46:34.011Z,96.08
2018-12-06T06:49:02.962Z,96.07
2018-12-06T06:51:31.147Z,95.69
2018-12-06T06:53:59.338Z,95.17
2018-12-06T06:56:27.735Z,95.36
2018-12-06T06:58:55.917Z,94.56
2018-12-06T07:01:24.851Z,95.30
2018-12-06T07:03:53.070Z,95.13
2018-12-06T07:06:21.393Z,94.84
2018-12-06T07:08:50.371Z,95.29
2018-12-06T07:11:18.587Z,95.11
2018-12-06T07:13:46.777Z,95.32
2018-12-06T07:16:15.056Z,95.18
2018-12-06T07:18:43.252Z,94.73
2018-12-06T07:21:11.647Z,94.86
2018-12-06T07:23:39.903Z,95.20
2018-12-06T07:26:08.081Z,95.44
2018-12-06T07:28:37.062Z,95.02
2018-12-06T07:31:05.329Z,95.72
2018-12-06T07:33:33.526Z,95.41
2018-12-06T07:36:05.214Z,95.21
2018-12-06T07:38:33.391Z,95.64
2018-12-06T07:41:01.606Z,95.50
2018-12-06T07:43:31.368Z,96.36
2018-12-06T07:46:05.666Z,96.38
2018-12-06T07:48:34.307Z,95.83
2018-12-06T07:51:02.708Z,96.57
2018-12-06T07:53:32.174Z,96.54
2018-12-06T07:56:00.349Z,96.72
2018-12-06T07:58:30.533Z,96.57
2018-12-06T08:01:00.658Z,95.91
2018-12-06T08:03:28.896Z,95.12
2018-12-06T08:05:57.139Z,95.16
2018-12-06T08:08:25.957Z,94.42
2018-12-06T08:10:54.201Z,94.52
2018-12-06T08:13:22.386Z,93.80
2018-12-06T08:15:51.151Z,93.43
2018-12-06T08:18:19.329Z,93.75
2018-12-06T08:20:47.640Z,93.18
2018-12-06T08:23:16.701Z,93.29
2018-12-06T08:25:44.909Z,93.46
2018-12-06T08:28:13.090Z,93.60
2018-12-06T08:30:42.176Z,94.34
2018-12-06T08:33:10.459Z,94.51
2018-12-06T08:35:38.694Z,95.83
2018-12-06T08:38:06.914Z,95.63
2018-12-06T08:40:35.081Z,95.39
2018-12-06T08:43:03.262Z,94.92
2018-12-06T08:45:32.299Z,95.15
2018-12-06T08:48:00.478Z,94.15
2018-12-06T08:50:28.737Z,93.08
2018-12-06T08:52:56.917Z,93.33
2018-12-06T08:55:25.105Z,93.43
2018-12-06T08:57:53.273Z,93.35
2018-12-06T09:00:21.446Z,93.08
2018-12-06T09:02:49.616Z,92.73
2018-12-06T09:05:17.777Z,92.77
2018-12-06T09:07:46.047Z,93.05
2018-12-06T09:10:14.211Z,92.00
2018-12-06T09:12:42.441Z,91.33
2018-12-06T09:15:10.618Z,91.67
2018-12-06T09:17:38.795Z,91.55
2018-12-06T09:20:07.820Z,91.73
2018-12-06T09:22:35.988Z,90.93
2018-12-06T09:25:04.265Z,90.76
2018-12-06T09:27:32.990Z,90.59
2018-12-06T09:30:01.174Z,88.85
2018-12-06T09:32:29.444Z,89.48
2018-12-06T09:34:57.612Z,88.14
2018-12-06T09:37:25.818Z,87.77
2018-12-06T09:39:58.926Z,87.65
2018-12-06T09:42:27.195Z,87.57
2018-12-06T09:44:55.500Z,86.60
2018-12-06T09:47:24.406Z,86.27
2018-12-06T09:49:52.708Z,85.75
2018-12-06T09:52:20.870Z,86.43
2018-12-06T09:54:49.046Z,86.33
2018-12-06T09:57:17.224Z,85.71
2018-12-06T09:59:46.979Z,84.76
2018-12-06T10:02:15.383Z,86.45
2018-12-06T10:04:43.570Z,85.94
2018-12-06T10:07:11.774Z,85.11
2018-12-06T10:09:39.940Z,86.02
2018-12-06T10:12:08.130Z,86.21
2018-12-06T10:14:36.338Z,85.99
2018-12-06T10:17:04.613Z,85.99
2018-12-06T10:19:32.865Z,86.67
2018-12-06T10:22:01.048Z,86.33
2018-12-06T10:24:29.326Z,85.47
2018-12-06T10:26:57.537Z,86.37
2018-12-06T10:29:25.775Z,83.66
2018-12-06T10:31:54.152Z,84.25
2018-12-06T10:34:22.541Z,82.72
2018-12-06T10:36:50.779Z,84.10
2018-12-06T10:39:18.962Z,84.23
2018-12-06T10:41:47.149Z,82.88
2018-12-06T10:44:28.493Z,83.44
2018-12-06T10:46:57.305Z,83.67
2018-12-06T10:49:25.539Z,83.00
2018-12-06T10:51:53.944Z,83.36
2018-12-06T10:54:25.388Z,83.18
2018-12-06T10:56:53.556Z,83.76
2018-12-06T10:59:21.725Z,83.60
2018-12-06T11:01:56.965Z,83.33
2018-12-06T11:04:29.395Z,83.16
2018-12-06T11:06:57.600Z,82.75
2018-12-06T11:09:25.810Z,82.76
2018-12-06T11:11:53.955Z,83.10
2018-12-06T11:14:22.171Z,82.78
2018-12-06T11:16:50.447Z,82.43
2018-12-06T11:19:18.612Z,81.88
2018-12-06T11:21:46.835Z,83.17
2018-12-06T11:24:15.009Z,82.33
2018-12-06T11:26:43.175Z,81.79
2018-12-06T11:29:11.366Z,82.76
2018-12-06T11:31:39.541Z,83.41
2018-12-06T11:34:07.846Z,82.80
2018-12-06T11:36:36.040Z,83.19
2018-12-06T11:39:07.311Z,83.51
2018-12-06T11:41:42.817Z,83.04
2018-12-06T11:44:05.887Z,83.16
2018-12-06T11:46:34.095Z,83.50
2018-12-06T11:49:02.278Z,84.32
2018-12-06T11:51:30.496Z,84.97
2018-12-06T11:53:58.665Z,83.78
2018-12-06T11:56:26.846Z,84.01
2018-12-06T11:58:55.084Z,82.98
2018-12-06T12:01:23.292Z,84.04
2018-12-06T12:03:51.470Z,83.19
2018-12-06T12:06:20.221Z,83.19
2018-12-06T12:08:48.434Z,83.22
2018-12-06T12:11:16.613Z,83.05
2018-12-06T12:13:45.149Z,82.94
2018-12-06T12:16:13.358Z,83.27
2018-12-06T12:18:41.843Z,83.31
2018-12-06T12:21:10.032Z,83.51
2018-12-06T12:23:38.301Z,83.15
2018-12-06T12:26:06.625Z,83.24
2018-12-06T12:28:34.845Z,83.09
2018-12-06T12:31:03.020Z,82.80
2018-12-06T12:33:31.324Z,83.29
2018-12-06T12:35:59.585Z,83.77
2018-12-06T12:38:27.753Z,83.57
2018-12-06T12:40:56.037Z,83.72
2018-12-06T12:43:24.299Z,84.01
2018-12-06T12:45:52.472Z,83.34
2018-12-06T12:48:20.773Z,83.67
2018-12-06T12:50:49.114Z,84.48
2018-12-06T12:53:17.299Z,84.65
2018-12-06T12:55:45.942Z,83.51
2018-12-06T12:58:14.139Z,83.99
2018-12-06T13:00:42.309Z,82.85
2018-12-06T13:03:10.505Z,82.61
2018-12-06T13:05:38.771Z,82.99
2018-12-06T13:08:07.724Z,82.10
2018-12-06T13:10:35.933Z,82.45
2018-12-06T13:13:04.118Z,81.83
2018-12-06T13:15:32.336Z,82.64
2018-12-06T13:18:00.572Z,82.35
2018-12-06T13:20:28.749Z,82.35
2018-12-06T13:22:57.066Z,82.24
2018-12-06T13:25:25.287Z,82.34
2018-12-06T13:27:53.561Z,82.27
2018-12-06T13:30:21.758Z,82.38
2018-12-06T13:32:50.226Z,82.47
2018-12-06T13:35:18.404Z,82.71
2018-12-06T13:37:46.705Z,82.72
2018-12-06T13:40:14.943Z,82.20
2018-12-06T13:42:43.235Z,81.87
2018-12-06T13:45:11.505Z,81.73
2018-12-06T13:47:39.870Z,81.98
2018-12-06T13:50:08.244Z,82.49
2018-12-06T13:52:36.421Z,82.28
2018-12-06T13:55:04.810Z,82.25
2018-12-06T13:57:33.025Z,83.51
2018-12-06T14:00:01.246Z,81.93
2018-12-06T14:02:29.530Z,82.22
2018-12-06T14:04:57.730Z,82.22
2018-12-06T14:07:25.980Z,83.13
2018-12-06T14:09:54.156Z,82.62
2018-12-06T14:12:23.173Z,82.57
2018-12-06T14:14:51.424Z,82.75
2018-12-06T14:17:19.593Z,82.69
2018-12-06T14:19:48.267Z,82.57
2018-12-06T14:22:16.452Z,81.63
2018-12-06T14:24:44.629Z,81.83
2018-12-06T14:27:12.958Z,82.00
2018-12-06T14:29:41.183Z,81.60
2018-12-06T14:32:09.363Z,81.79
2018-12-06T14:34:38.253Z,82.30
2018-12-06T14:37:06.514Z,81.94
2018-12-06T14:39:34.797Z,82.02
2018-12-06T14:42:03.023Z,81.96
2018-12-06T14:44:31.234Z,81.78
2018-12-06T14:46:59.413Z,82.24
2018-12-06T14:49:27.630Z,82.58
2018-12-06T14:51:55.865Z,82.14
2018-12-06T14:54:24.033Z,82.76
2018-12-06T14:56:52.250Z,82.17
2018-12-06T14:59:20.488Z,82.02
2018-12-06T15:01:48.697Z,82.22
2018-12-06T15:04:16.957Z,82.78
2018-12-06T15:06:45.127Z,82.51
2018-12-06T15:09:13.477Z,82.94
2018-12-06T15:11:42.232Z,82.79
2018-12-06T15:14:10.455Z,83.79
2018-12-06T15:16:38.623Z,83.46
2018-12-06T15:19:10.349Z,83.39
2018-12-06T15:21:38.541Z,83.97
2018-12-06T15:24:06.734Z,84.24
2018-12-06T15:26:34.904Z,84.30
2018-12-06T15:29:03.174Z,84.78
2018-12-06T15:31:31.510Z,85.07
2018-12-06T15:33:59.828Z,85.63
2018-12-06T15:36:28.010Z,85.57
2018-12-06T15:38:56.247Z,85.83
2018-12-06T15:41:24.461Z,86.50
2018-12-06T15:43:52.729Z,86.31
2018-12-06T15:46:20.953Z,86.11
2018-12-06T15:48:49.188Z,86.17
2018-12-06T15:51:18.474Z,86.06
2018-12-06T15:53:47.143Z,86.41
2018-12-06T15:56:15.301Z,86.65
2018-12-06T15:58:43.604Z,87.10
2018-12-06T16:01:11.852Z,87.23
2018-12-06T16:03:40.061Z,86.86
2018-12-06T16:06:08.247Z,86.79
2018-12-06T16:08:36.530Z,87.41
2018-12-06T16:11:04.697Z,87.23
2018-12-06T16:13:32.862Z,87.62
2018-12-06T16:16:01.160Z,87.67
2018-12-06T16:18:29.380Z,87.10
2018-12-06T16:20:57.659Z,87.02
2018-12-06T16:23:25.865Z,86.98
2018-12-06T16:25:54.132Z,87.38
2018-12-06T16:28:22.311Z,86.96
2018-12-06T16:30:50.512Z,87.33
2018-12-06T16:33:18.749Z,87.50
2018-12-06T16:35:46.929Z,88.08
2018-12-06T16:38:15.124Z,87.97
2018-12-06T16:40:43.362Z,88.62
2018-12-06T16:43:11.529Z,88.69
2018-12-06T16:45:40.182Z,89.29
2018-12-06T16:48:08.404Z,89.47
2018-12-06T16:50:36.571Z,90.32
2018-12-06T16:53:04.808Z,91.51
2018-12-06T16:55:33.021Z,90.98
2018-12-06T16:58:01.195Z,91.05
2018-12-06T17:00:29.403Z,91.31
2018-12-06T17:02:57.653Z,91.38
2018-12-06T17:05:25.819Z,90.87
2018-12-06T17:07:54.876Z,90.57
2018-12-06T17:10:23.102Z,90.38
2018-12-06T17:12:51.274Z,90.56
2018-12-06T17:15:19.618Z,90.16
2018-12-06T17:17:47.894Z,90.30
2018-12-06T17:20:16.089Z,89.85
2018-12-06T17:22:44.311Z,89.98
2018-12-06T17:25:12.552Z,90.78
2018-12-06T17:27:40.731Z,90.30
2018-12-06T17:30:10.590Z,90.03
2018-12-06T17:32:38.796Z,90.50
2018-12-06T17:35:07.072Z,90.39
2018-12-06T17:37:35.254Z,90.17
2018-12-06T17:40:03.646Z,90.11
2018-12-06T17:42:31.939Z,89.46
2018-12-06T17:45:00.170Z,89.69
2018-12-06T17:47:28.350Z,89.78
2018-12-06T17:49:56.541Z,89.80
2018-12-06T17:52:24.806Z,89.60
2018-12-06T17:54:54.172Z,89.52
2018-12-06T17:57:22.374Z,89.21
2018-12-06T17:59:50.540Z,89.19
2018-12-06T18:02:18.732Z,89.04
2018-12-06T18:04:46.953Z,88.36
2018-12-06T18:07:15.225Z,88.41
2018-12-06T18:09:43.392Z,88.25
2018-12-06T18:12:11.707Z,88.49
2018-12-06T18:14:39.911Z,88.44
2018-12-06T18:17:08.107Z,88.65
2018-12-06T18:19:36.389Z,88.59
2018-12-06T18:22:04.715Z,88.12
2018-12-06T18:24:33.110Z,88.53
2018-12-06T18:27:01.289Z,88.81
2018-12-06T18:29:29.572Z,88.96
2018-12-06T18:31:57.878Z,89.78
2018-12-06T18:34:26.098Z,90.39
2018-12-06T18:36:54.290Z,90.90
2018-12-06T18:39:24.411Z,91.24
2018-12-06T18:41:52.674Z,91.08
2018-12-06T18:44:20.873Z,90.69
2018-12-06T18:46:49.104Z,90.80
2018-12-06T18:49:17.402Z,90.32
2018-12-06T18:51:45.680Z,90.32
2018-12-06T18:54:13.949Z,90.89
2018-12-06T18:56:42.493Z,90.68
2018-12-06T18:59:10.727Z,90.63
2018-12-06T19:01:38.990Z,90.97
2018-12-06T19:04:07.264Z,91.25
2018-12-06T19:06:42.279Z,91.41
2018-12-06T19:09:10.603Z,91.51
2018-12-06T19:11:38.835Z,91.37
2018-12-06T19:14:07.040Z,91.52
2018-12-06T19:16:35.307Z,90.74
2018-12-06T19:19:03.577Z,91.08
2018-12-06T19:21:32.918Z,91.22
2018-12-06T19:24:01.248Z,91.36
2018-12-06T19:26:29.418Z,91.89
2018-12-06T19:28:57.703Z,91.14
2018-12-06T19:31:25.875Z,91.35
2018-12-06T19:33:54.515Z,91.39
2018-12-06T19:36:22.731Z,90.78
2018-12-06T19:38:51.039Z,90.68
2018-12-06T19:41:19.288Z,91.12
2018-12-06T19:43:47.560Z,90.71
2018-12-06T19:46:16.316Z,90.35
2018-12-06T19:48:44.605Z,90.83
2018-12-06T19:51:12.795Z,91.40
2018-12-06T19:53:41.080Z,91.44
2018-12-06T19:56:09.435Z,91.57
2018-12-06T19:58:38.313Z,91.30
2018-12-06T20:01:06.598Z,91.19
2018-12-06T20:03:34.840Z,90.43
2018-12-06T20:06:03.042Z,90.66
2018-12-06T20:08:32.229Z,90.77
2018-12-06T20:11:00.469Z,90.32
2018-12-06T20:13:28.748Z,90.30
2018-12-06T20:15:56.955Z,90.62
2018-12-06T20:18:25.134Z,90.35
2018-12-06T20:20:53.393Z,90.76
2018-12-06T20:23:21.587Z,90.34
2018-12-06T20:25:49.761Z,89.93
2018-12-06T20:28:17.942Z,90.45
2018-12-06T20:30:46.113Z,90.38
2018-12-06T20:33:14.367Z,90.26
2018-12-06T20:35:42.745Z,89.98
2018-12-06T20:38:10.929Z,90.42
2018-12-06T20:40:39.203Z,90.22
2018-12-06T20:43:07.505Z,90.04
2018-12-06T20:45:35.677Z,89.82
2018-12-06T20:48:05.607Z,89.93
2018-12-06T20:50:34.775Z,90.08
2018-12-06T20:53:02.970Z,89.74
2018-12-06T20:55:32.101Z,90.14
2018-12-06T20:58:00.944Z,90.02
2018-12-06T21:00:29.126Z,90.53
2018-12-06T21:02:57.304Z,91.16
2018-12-06T21:05:25.525Z,91.01
2018-12-06T21:07:53.794Z,90.84
2018-12-06T21:10:31.406Z,91.37
2018-12-06T21:12:59.709Z,91.53
2018-12-06T21:15:27.983Z,91.42
2018-12-06T21:17:56.205Z,90.91
2018-12-06T21:20:24.392Z,90.71
2018-12-06T21:22:52.580Z,90.94
2018-12-06T21:25:20.779Z,90.99
2018-12-06T21:27:49.377Z,91.02
2018-12-06T21:30:19.073Z,91.28
2018-12-06T21:32:49.774Z,91.43
2018-12-06T21:35:19.239Z,91.96
2018-12-06T21:37:48.793Z,92.03
2018-12-06T21:40:19.082Z,92.50
2018-12-06T21:42:49.338Z,92.92
2018-12-06T21:45:18.955Z,93.23
2018-12-06T21:47:48.637Z,93.32
2018-12-06T21:50:18.065Z,93.04
2018-12-06T21:52:48.237Z,93.33
2018-12-06T21:55:18.704Z,93.77
2018-12-06T21:57:49.620Z,93.59
2018-12-06T22:00:20.578Z,93.93
2018-12-06T22:02:49.366Z,94.11
2018-12-06T22:05:17.624Z,94.09
2018-12-06T22:07:46.513Z,93.99
2018-12-06T22:10:14.825Z,93.58
2018-12-06T22:12:44.288Z,93.78
2018-12-06T22:15:12.816Z,93.78
2018-12-06T22:17:41.021Z,93.86
2018-12-06T22:20:09.357Z,94.39
2018-12-06T22:22:38.479Z,93.99
2018-12-06T22:25:07.626Z,94.07
2018-12-06T22:27:37.745Z,94.48
2018-12-06T22:30:07.468Z,94.04
2018-12-06T22:32:36.933Z,94.37
2018-12-06T22:35:06.834Z,94.51
2018-12-06T22:37:37.928Z,94.31
2018-12-06T22:40:06.665Z,94.09
2018-12-06T22:42:34.902Z,94.14
2018-12-06T22:45:14.549Z,93.98
2018-12-06T22:47:42.722Z,93.88
2018-12-06T22:50:10.959Z,93.95
2018-12-06T22:52:39.171Z,93.00
2018-12-06T22:55:08.041Z,93.76
2018-12-06T22:57:37.367Z,94.07
2018-12-06T23:00:08.870Z,93.91
2018-12-06T23:02:38.625Z,93.02
2018-12-06T23:05:07.040Z,93.12
2018-12-06T23:07:37.969Z,92.83
2018-12-06T23:10:07.679Z,93.07
2018-12-06T23:12:37.091Z,92.74
2018-12-06T23:15:07.441Z,92.70
2018-12-06T23:17:37.210Z,93.24
2018-12-06T23:20:05.673Z,92.83
2018-12-06T23:22:33.854Z,92.93
2018-12-06T23:25:02.096Z,92.95
2018-12-06T23:27:30.370Z,92.40
2018-12-06T23:29:58.544Z,93.03
2018-12-06T23:32:26.779Z,92.87
2018-12-06T23:34:55.069Z,92.69
2018-12-06T23:37:23.450Z,92.91
2018-12-06T23:39:51.720Z,92.81
2018-12-06T23:42:20.019Z,92.59
2018-12-06T23:44:48.192Z,92.54
2018-12-06T23:47:16.398Z,92.40
2018-12-06T23:49:44.655Z,91.95
2018-12-06T23:52:12.817Z,91.92
2018-12-06T23:54:40.988Z,92.27
2018-12-06T23:57:09.161Z,91.66
2018-12-06T23:59:37.363Z,91.40
